Terminal Aerodrome Forecast
Issued by NWS Upton, NY

Home | Current Version | Previous Version | Text Only | Print | Product List | Glossary On
Versions: 1 2 3 4 5 6 7 8 9 10 11 12 13 14 15 16 17 18 19 20 21 22 23 24 25 26 27 28 29 30 31 32 33 34 35 36 37
000
FTUS41 KOKX 102300
TAFEWR
TAF
KEWR 102335Z 1100/1206 15006KT P6SM VCSH SCT050 SCT120
     FM110300 VRB03KT P6SM FEW050
     FM110900 03007KT P6SM FEW050
     FM111400 05008KT P6SM FEW050
     FM111800 08010KT P6SM FEW050
     FM112100 12010KT P6SM FEW050
     FM120000 15006KT P6SM SKC=

USA.gov is the U.S. government's official web portal to all federal, state and local government web resources and services.